CLO weather

Alfonso Bonilla Aragon International Airport
Cali, Valle del Cauca Department, Colombia

Public forecast

Using degrees Celsius for public forecast. Weather courtesy of forecast.io.

METAR (pilot weather report)

Retrieved 2018/07/20 19:00 UTC (18 minutes ago):

SKCL 201900Z 35003KT 9999 SCT020 BKN100 31/19 A2989

TAF (pilot weather forecast)

Forecast is more than 12 hours old.

Retrieved 2018/07/19 18:12 UTC (1 day ago):

TAF SKCL 191700Z 1918/2018 32010KT 9999 SCT020 SCT090 BECMG 2003/2004 03005KT TEMPO 2009/2012 6000 VCFG SCT010 BECMG 2015/2017 32008KT TX 32/1920Z TN20/2011Z